createdAt,value
2018-09-18T00:01:07.902Z,14.61
2018-09-18T00:03:36.093Z,14.48
2018-09-18T00:06:04.397Z,14.49
2018-09-18T00:08:32.630Z,14.48
2018-09-18T00:11:00.825Z,14.56
2018-09-18T00:13:29.001Z,14.48
2018-09-18T00:15:57.266Z,14.47
2018-09-18T00:18:25.455Z,14.41
2018-09-18T00:20:53.717Z,14.33
2018-09-18T00:23:21.905Z,14.23
2018-09-18T00:25:50.097Z,14.16
2018-09-18T00:28:18.271Z,14.11
2018-09-18T00:30:46.513Z,14.16
2018-09-18T00:33:14.805Z,14.21
2018-09-18T00:35:43.197Z,14.11
2018-09-18T00:38:11.377Z,14.09
2018-09-18T00:40:39.605Z,13.99
2018-09-18T00:43:07.878Z,14.00
2018-09-18T00:45:36.053Z,14.03
2018-09-18T00:48:04.493Z,14.11
2018-09-18T00:50:32.968Z,14.13
2018-09-18T00:53:01.326Z,14.07
2018-09-18T00:55:29.946Z,13.96
2018-09-18T00:57:58.120Z,13.88
2018-09-18T01:00:26.325Z,13.82
2018-09-18T01:02:54.512Z,13.84
2018-09-18T01:05:22.802Z,13.89
2018-09-18T01:07:51.114Z,13.91
2018-09-18T01:10:19.333Z,13.84
2018-09-18T01:12:47.906Z,13.79
2018-09-18T01:15:16.584Z,13.77
2018-09-18T01:17:44.789Z,13.64
2018-09-18T01:20:13.049Z,13.63
2018-09-18T01:22:41.223Z,13.62
2018-09-18T01:25:09.840Z,13.53
2018-09-18T01:27:38.174Z,13.49
2018-09-18T01:30:06.373Z,13.51
2018-09-18T01:32:34.852Z,13.51
2018-09-18T01:35:03.024Z,13.40
2018-09-18T01:37:31.273Z,13.39
2018-09-18T01:39:59.564Z,13.42
2018-09-18T01:42:27.761Z,13.48
2018-09-18T01:44:56.061Z,13.45
2018-09-18T01:47:24.236Z,13.41
2018-09-18T01:49:52.666Z,13.41
2018-09-18T01:52:20.828Z,13.45
2018-09-18T01:54:49.290Z,13.50
2018-09-18T01:57:17.484Z,13.46
2018-09-18T01:59:45.662Z,13.30
2018-09-18T02:02:13.935Z,13.30
2018-09-18T02:04:42.124Z,13.33
2018-09-18T02:07:10.618Z,13.33
2018-09-18T02:09:38.818Z,13.33
2018-09-18T02:12:07.012Z,13.20
2018-09-18T02:14:35.528Z,13.17
2018-09-18T02:17:03.718Z,13.25
2018-09-18T02:19:31.982Z,13.17
2018-09-18T02:22:00.482Z,13.13
2018-09-18T02:24:29.078Z,13.17
2018-09-18T02:26:57.240Z,13.09
2018-09-18T02:29:25.487Z,13.10
2018-09-18T02:31:53.681Z,13.13
2018-09-18T02:34:21.877Z,13.15
2018-09-18T02:36:50.124Z,13.14
2018-09-18T02:39:18.720Z,13.16
2018-09-18T02:41:46.909Z,13.20
2018-09-18T02:44:15.133Z,13.22
2018-09-18T02:46:43.337Z,13.23
2018-09-18T02:49:11.606Z,13.24
2018-09-18T02:51:39.808Z,13.29
2018-09-18T02:54:08.007Z,13.14
2018-09-18T02:56:36.187Z,13.17
2018-09-18T02:59:04.674Z,13.25
2018-09-18T03:01:33.128Z,13.26
2018-09-18T03:04:01.694Z,13.25
2018-09-18T03:06:30.169Z,13.21
2018-09-18T03:08:58.444Z,13.13
2018-09-18T03:11:26.658Z,13.07
2018-09-18T03:13:54.882Z,13.05
2018-09-18T03:16:23.077Z,13.01
2018-09-18T03:18:51.262Z,13.03
2018-09-18T03:21:19.510Z,13.02
2018-09-18T03:23:47.690Z,13.01
2018-09-18T03:26:16.048Z,12.93
2018-09-18T03:28:44.227Z,12.82
2018-09-18T03:31:12.422Z,12.84
2018-09-18T03:33:40.597Z,12.92
2018-09-18T03:36:08.810Z,12.96
2018-09-18T03:38:37.006Z,13.07
2018-09-18T03:41:05.193Z,12.96
2018-09-18T03:43:33.370Z,12.85
2018-09-18T03:46:01.586Z,12.81
2018-09-18T03:48:29.754Z,12.85
2018-09-18T03:50:57.937Z,12.89
2018-09-18T03:53:26.189Z,12.91
2018-09-18T03:55:54.659Z,12.97
2018-09-18T03:58:22.935Z,12.84
2018-09-18T04:00:51.159Z,12.83
2018-09-18T04:03:19.414Z,12.82
2018-09-18T04:05:47.589Z,12.81
2018-09-18T04:08:16.863Z,12.95
2018-09-18T04:10:45.444Z,12.90
2018-09-18T04:13:13.983Z,12.89
2018-09-18T04:15:42.677Z,12.88
2018-09-18T04:18:12.587Z,12.93
2018-09-18T04:20:40.756Z,12.95
2018-09-18T04:23:09.297Z,13.03
2018-09-18T04:25:37.472Z,12.61
2018-09-18T04:28:05.735Z,12.29
2018-09-18T04:30:33.951Z,12.18
2018-09-18T04:33:02.112Z,12.20
2018-09-18T04:35:30.305Z,12.14
2018-09-18T04:37:58.498Z,12.19
2018-09-18T04:40:26.698Z,12.00
2018-09-18T04:42:54.978Z,11.98
2018-09-18T04:45:23.286Z,12.03
2018-09-18T04:47:51.477Z,11.99
2018-09-18T04:50:19.926Z,12.02
2018-09-18T04:52:48.097Z,11.89
2018-09-18T04:55:16.592Z,11.93
2018-09-18T04:57:44.827Z,11.90
2018-09-18T05:00:13.184Z,11.90
2018-09-18T05:02:42.005Z,11.97
2018-09-18T05:05:10.285Z,11.99
2018-09-18T05:07:38.477Z,12.06
2018-09-18T05:10:06.797Z,12.16
2018-09-18T05:12:34.988Z,12.21
2018-09-18T05:15:03.209Z,12.25
2018-09-18T05:17:31.465Z,12.33
2018-09-18T05:19:59.663Z,12.41
2018-09-18T05:22:27.928Z,12.51
2018-09-18T05:24:56.199Z,12.65
2018-09-18T05:27:24.641Z,12.78
2018-09-18T05:29:52.836Z,12.90
2018-09-18T05:32:21.116Z,13.03
2018-09-18T05:34:49.550Z,13.19
2018-09-18T05:37:17.790Z,13.25
2018-09-18T05:39:46.000Z,13.35
2018-09-18T05:42:14.224Z,13.46
2018-09-18T05:44:42.422Z,13.52
2018-09-18T05:47:11.226Z,13.65
2018-09-18T05:49:39.994Z,13.72
2018-09-18T05:52:08.201Z,13.78
2018-09-18T05:54:36.481Z,13.92
2018-09-18T05:57:04.945Z,14.11
2018-09-18T05:59:33.501Z,14.08
2018-09-18T06:02:01.767Z,14.23
2018-09-18T06:04:30.096Z,14.32
2018-09-18T06:06:58.265Z,14.40
2018-09-18T06:09:26.489Z,14.50
2018-09-18T06:11:54.777Z,14.55
2018-09-18T06:14:23.271Z,14.68
2018-09-18T06:16:51.749Z,14.73
2018-09-18T06:19:20.024Z,14.91
2018-09-18T06:21:48.199Z,15.19
2018-09-18T06:24:16.612Z,15.23
2018-09-18T06:26:44.790Z,15.36
2018-09-18T06:29:12.998Z,15.52
2018-09-18T06:31:41.184Z,15.69
2018-09-18T06:34:09.364Z,15.89
2018-09-18T06:36:37.882Z,15.99
2018-09-18T06:39:08.471Z,16.09
2018-09-18T06:41:36.746Z,16.24
2018-09-18T06:44:04.969Z,16.44
2018-09-18T06:46:33.258Z,16.56
2018-09-18T06:49:01.430Z,16.89
2018-09-18T06:51:29.969Z,17.05
2018-09-18T06:53:58.246Z,17.19
2018-09-18T06:56:26.449Z,17.30
2018-09-18T06:58:55.006Z,17.45
2018-09-18T07:01:23.485Z,17.52
2018-09-18T07:03:51.704Z,17.57
2018-09-18T07:06:20.140Z,17.58
2018-09-18T07:08:48.429Z,17.73
2018-09-18T07:11:16.614Z,17.99
2018-09-18T07:13:44.873Z,18.12
2018-09-18T07:16:13.040Z,18.27
2018-09-18T07:18:41.305Z,18.55
2018-09-18T07:21:09.571Z,18.55
2018-09-18T07:23:37.786Z,18.65
2018-09-18T07:26:06.004Z,18.76
2018-09-18T07:28:34.208Z,18.92
2018-09-18T07:31:02.392Z,19.18
2018-09-18T07:33:30.878Z,19.34
2018-09-18T07:35:59.066Z,19.21
2018-09-18T07:38:27.431Z,19.46
2018-09-18T07:40:55.700Z,19.30
2018-09-18T07:43:24.276Z,19.09
2018-09-18T07:45:52.466Z,19.21
2018-09-18T07:48:20.665Z,19.22
2018-09-18T07:50:48.904Z,19.50
2018-09-18T07:53:17.168Z,19.86
2018-09-18T07:55:45.346Z,20.28
2018-09-18T07:58:13.542Z,20.15
2018-09-18T08:00:41.749Z,20.00
2018-09-18T08:03:10.314Z,20.14
2018-09-18T08:05:38.506Z,20.40
2018-09-18T08:08:06.708Z,20.71
2018-09-18T08:10:34.884Z,20.58
2018-09-18T08:13:03.390Z,20.63
2018-09-18T08:15:31.690Z,20.71
2018-09-18T08:17:59.858Z,21.16
2018-09-18T08:20:28.128Z,21.08
2018-09-18T08:22:56.318Z,20.84
2018-09-18T08:25:24.582Z,21.29
2018-09-18T08:27:52.770Z,21.43
2018-09-18T08:30:20.948Z,21.32
2018-09-18T08:32:49.172Z,21.15
2018-09-18T08:35:17.362Z,21.83
2018-09-18T08:37:45.563Z,21.66
2018-09-18T08:40:13.811Z,21.98
2018-09-18T08:42:42.155Z,22.26
2018-09-18T08:45:10.375Z,22.08
2018-09-18T08:47:38.547Z,22.24
2018-09-18T08:50:06.817Z,22.44
2018-09-18T08:52:35.029Z,22.60
2018-09-18T08:55:03.198Z,22.75
2018-09-18T08:57:31.671Z,22.82
2018-09-18T08:59:59.852Z,22.82
2018-09-18T09:02:28.090Z,22.95
2018-09-18T09:04:56.276Z,23.00
2018-09-18T09:07:24.477Z,23.04
2018-09-18T09:09:52.667Z,22.90
2018-09-18T09:12:20.882Z,22.90
2018-09-18T09:14:49.183Z,23.23
2018-09-18T09:17:17.336Z,22.72
2018-09-18T09:19:45.529Z,22.78
2018-09-18T09:22:13.811Z,23.53
2018-09-18T09:24:41.945Z,23.56
2018-09-18T09:27:10.745Z,24.04
2018-09-18T09:29:39.030Z,23.97
2018-09-18T09:32:07.327Z,23.85
2018-09-18T09:34:35.565Z,24.00
2018-09-18T09:37:03.800Z,23.83
2018-09-18T09:39:31.921Z,24.13
2018-09-18T09:42:00.109Z,24.03
2018-09-18T09:44:28.363Z,24.56
2018-09-18T09:46:56.532Z,25.18
2018-09-18T09:49:24.723Z,24.96
2018-09-18T09:51:52.989Z,24.74
2018-09-18T09:54:21.316Z,24.78
2018-09-18T09:56:49.518Z,24.89
2018-09-18T09:59:17.772Z,24.02
2018-09-18T10:01:55.444Z,25.32
2018-09-18T10:04:23.987Z,25.60
2018-09-18T10:06:52.427Z,25.35
2018-09-18T10:09:21.174Z,25.22
2018-09-18T10:11:49.426Z,25.29
2018-09-18T10:14:18.012Z,25.74
2018-09-18T10:16:46.218Z,26.01
2018-09-18T10:19:14.464Z,25.95
2018-09-18T10:21:42.648Z,26.35
2018-09-18T10:24:11.233Z,26.79
2018-09-18T10:26:39.903Z,26.41
2018-09-18T10:29:08.159Z,26.45
2018-09-18T10:31:36.393Z,26.54
2018-09-18T10:34:04.635Z,27.37
2018-09-18T10:36:32.833Z,28.32
2018-09-18T10:39:01.045Z,29.27
2018-09-18T10:41:29.749Z,29.54
2018-09-18T10:43:57.782Z,31.92
2018-09-18T10:46:25.998Z,31.83
2018-09-18T10:48:57.057Z,31.40
2018-09-18T10:51:25.393Z,33.89
2018-09-18T10:53:53.874Z,34.67
2018-09-18T10:56:22.253Z,35.01
2018-09-18T10:58:50.465Z,35.72
2018-09-18T11:01:19.637Z,34.61
2018-09-18T11:03:47.858Z,35.13
2018-09-18T11:06:16.031Z,34.82
2018-09-18T11:08:44.300Z,33.50
2018-09-18T11:11:12.619Z,34.23
2018-09-18T11:13:40.781Z,36.35
2018-09-18T11:16:09.198Z,36.07
2018-09-18T11:18:37.244Z,33.93
2018-09-18T11:21:05.577Z,35.09
2018-09-18T11:23:33.748Z,36.30
2018-09-18T11:26:02.029Z,36.27
2018-09-18T11:28:30.271Z,32.47
2018-09-18T11:30:58.427Z,35.11
2018-09-18T11:33:26.620Z,36.60
2018-09-18T11:35:54.842Z,37.28
2018-09-18T11:38:23.033Z,38.15
2018-09-18T11:40:51.280Z,38.27
2018-09-18T11:43:19.574Z,35.54
2018-09-18T11:45:48.077Z,38.44
2018-09-18T11:48:16.229Z,38.76
2018-09-18T11:50:44.418Z,38.40
2018-09-18T11:53:12.589Z,39.23
2018-09-18T11:55:40.830Z,39.11
2018-09-18T11:58:09.127Z,39.82
2018-09-18T12:00:37.397Z,39.24
2018-09-18T12:03:05.616Z,38.77
2018-09-18T12:05:34.142Z,39.69
2018-09-18T12:08:02.316Z,40.92
2018-09-18T12:10:30.489Z,40.61
2018-09-18T12:12:58.731Z,38.94
2018-09-18T12:15:27.090Z,39.62
2018-09-18T12:17:55.273Z,40.24
2018-09-18T12:20:23.533Z,41.80
2018-09-18T12:22:51.777Z,42.26
2018-09-18T12:25:19.942Z,40.49
2018-09-18T12:27:48.170Z,37.19
2018-09-18T12:30:16.402Z,40.68
2018-09-18T12:32:44.578Z,41.89
2018-09-18T12:35:12.924Z,41.02
2018-09-18T12:37:41.046Z,42.87
2018-09-18T12:40:09.254Z,44.37
2018-09-18T12:42:37.978Z,42.83
2018-09-18T12:45:06.092Z,37.78
2018-09-18T12:47:34.258Z,43.61
2018-09-18T12:50:02.816Z,45.92
2018-09-18T12:52:30.630Z,45.88
2018-09-18T12:54:58.813Z,42.23
2018-09-18T12:57:27.114Z,39.72
2018-09-18T12:59:56.770Z,39.19
2018-09-18T13:02:24.958Z,37.24
2018-09-18T13:04:53.081Z,43.75
2018-09-18T13:07:21.269Z,44.19
2018-09-18T13:09:49.588Z,43.83
2018-09-18T13:12:17.813Z,45.41
2018-09-18T13:14:46.085Z,45.78
2018-09-18T13:17:14.372Z,46.29
2018-09-18T13:19:42.674Z,46.26
2018-09-18T13:22:10.856Z,44.76
2018-09-18T13:24:39.289Z,42.52
2018-09-18T13:27:07.471Z,43.17
2018-09-18T13:29:35.751Z,44.93
2018-09-18T13:32:04.043Z,44.10
2018-09-18T13:34:32.353Z,44.29
2018-09-18T13:37:00.537Z,39.84
2018-09-18T13:39:28.935Z,42.84
2018-09-18T13:41:57.124Z,45.64
2018-09-18T13:44:25.316Z,44.93
2018-09-18T13:46:53.768Z,43.94
2018-09-18T13:49:22.130Z,41.69
2018-09-18T13:51:50.374Z,43.05
2018-09-18T13:54:18.577Z,44.67
2018-09-18T13:56:46.919Z,43.89
2018-09-18T13:59:15.002Z,44.57
2018-09-18T14:01:43.635Z,43.94
2018-09-18T14:04:11.745Z,40.90
2018-09-18T14:06:39.884Z,40.87
2018-09-18T14:09:08.879Z,40.77
2018-09-18T14:11:37.402Z,43.04
2018-09-18T14:14:05.599Z,44.50
2018-09-18T14:16:33.781Z,39.87
2018-09-18T14:19:01.984Z,41.23
2018-09-18T14:21:30.516Z,41.56
2018-09-18T14:23:58.993Z,41.46
2018-09-18T14:26:27.555Z,41.63
2018-09-18T14:28:56.003Z,40.44
2018-09-18T14:31:24.266Z,40.34
2018-09-18T14:33:52.523Z,39.34
2018-09-18T14:36:20.726Z,41.79
2018-09-18T14:38:49.146Z,40.99
2018-09-18T14:41:17.583Z,37.53
2018-09-18T14:43:45.884Z,38.75
2018-09-18T14:46:14.046Z,38.11
2018-09-18T14:48:42.394Z,37.10
2018-09-18T14:51:10.605Z,35.20
2018-09-18T14:53:38.733Z,34.18
2018-09-18T14:56:06.978Z,33.72
2018-09-18T14:58:35.496Z,32.78
2018-09-18T15:01:03.665Z,32.13
2018-09-18T15:03:31.939Z,32.00
2018-09-18T15:06:00.137Z,31.38
2018-09-18T15:08:28.404Z,31.84
2018-09-18T15:10:56.601Z,31.43
2018-09-18T15:13:24.798Z,31.19
2018-09-18T15:15:52.986Z,30.24
2018-09-18T15:18:21.173Z,30.65
2018-09-18T15:20:49.605Z,30.26
2018-09-18T15:23:18.017Z,30.35
2018-09-18T15:25:46.229Z,30.19
2018-09-18T15:28:14.415Z,30.33
2018-09-18T15:30:42.658Z,29.88
2018-09-18T15:33:10.860Z,29.79
2018-09-18T15:35:39.090Z,29.97
2018-09-18T15:38:07.268Z,29.94
2018-09-18T15:40:35.778Z,29.73
2018-09-18T15:43:04.046Z,29.72
2018-09-18T15:45:32.209Z,29.84
2018-09-18T15:48:00.382Z,29.27
2018-09-18T15:50:28.568Z,29.32
2018-09-18T15:52:56.767Z,29.24
2018-09-18T15:55:25.051Z,28.95
2018-09-18T15:57:53.483Z,28.57
2018-09-18T16:00:21.623Z,28.70
2018-09-18T16:02:49.884Z,28.50
2018-09-18T16:05:18.154Z,28.57
2018-09-18T16:07:46.340Z,28.37
2018-09-18T16:10:14.534Z,28.55
2018-09-18T16:12:42.789Z,28.48
2018-09-18T16:15:11.086Z,28.46
2018-09-18T16:17:39.278Z,28.64
2018-09-18T16:20:07.591Z,28.14
2018-09-18T16:22:35.894Z,28.06
2018-09-18T16:25:04.087Z,27.94
2018-09-18T16:27:34.838Z,27.67
2018-09-18T16:30:03.020Z,27.47
2018-09-18T16:32:31.344Z,27.25
2018-09-18T16:34:59.524Z,27.08
2018-09-18T16:37:27.734Z,27.03
2018-09-18T16:39:55.925Z,27.02
2018-09-18T16:42:24.135Z,26.95
2018-09-18T16:44:52.326Z,26.96
2018-09-18T16:47:20.788Z,26.62
2018-09-18T16:49:49.048Z,26.54
2018-09-18T16:52:17.662Z,26.40
2018-09-18T16:54:45.859Z,26.11
2018-09-18T16:57:14.392Z,25.96
2018-09-18T16:59:42.562Z,25.78
2018-09-18T17:02:10.853Z,25.68
2018-09-18T17:04:39.066Z,25.51
2018-09-18T17:07:07.142Z,25.33
2018-09-18T17:09:35.390Z,25.27
2018-09-18T17:12:03.573Z,25.12
2018-09-18T17:14:31.848Z,24.95
2018-09-18T17:17:00.086Z,24.74
2018-09-18T17:19:28.278Z,24.59
2018-09-18T17:21:56.465Z,24.61
2018-09-18T17:24:24.942Z,24.40
2018-09-18T17:26:53.420Z,24.22
2018-09-18T17:29:21.614Z,24.09
2018-09-18T17:31:49.873Z,24.03
2018-09-18T17:34:18.175Z,23.94
2018-09-18T17:36:46.326Z,23.83
2018-09-18T17:39:14.529Z,23.70
2018-09-18T17:41:42.885Z,23.64
2018-09-18T17:44:11.452Z,23.49
2018-09-18T17:46:39.782Z,23.35
2018-09-18T17:49:08.119Z,23.30
2018-09-18T17:51:36.300Z,23.18
2018-09-18T17:54:04.607Z,23.14
2018-09-18T17:56:32.788Z,23.00
2018-09-18T17:59:01.009Z,22.84
2018-09-18T18:01:29.462Z,22.76
2018-09-18T18:03:57.966Z,22.75
2018-09-18T18:06:26.143Z,22.63
2018-09-18T18:08:54.503Z,22.62
2018-09-18T18:11:22.699Z,22.55
2018-09-18T18:13:50.888Z,22.45
2018-09-18T18:16:19.082Z,22.29
2018-09-18T18:18:47.271Z,22.09
2018-09-18T18:21:15.499Z,21.97
2018-09-18T18:23:43.787Z,21.89
2018-09-18T18:26:12.044Z,21.84
2018-09-18T18:28:40.324Z,21.73
2018-09-18T18:31:08.528Z,21.59
2018-09-18T18:33:36.819Z,21.46
2018-09-18T18:36:05.016Z,21.30
2018-09-18T18:38:33.248Z,21.20
2018-09-18T18:41:01.609Z,21.17
2018-09-18T18:43:29.709Z,21.17
2018-09-18T18:45:57.932Z,21.20
2018-09-18T18:48:26.902Z,21.13
2018-09-18T18:50:55.404Z,21.04
2018-09-18T18:53:23.644Z,20.98
2018-09-18T18:55:51.874Z,20.97
2018-09-18T18:58:20.159Z,20.86
2018-09-18T19:00:48.346Z,20.85
2018-09-18T19:03:16.602Z,20.89
2018-09-18T19:05:44.922Z,20.89
2018-09-18T19:08:13.142Z,20.80
2018-09-18T19:10:41.366Z,20.80
2018-09-18T19:13:09.555Z,20.84
2018-09-18T19:15:37.800Z,20.89
2018-09-18T19:18:06.064Z,20.89
2018-09-18T19:20:34.253Z,20.87
2018-09-18T19:23:02.554Z,21.00
2018-09-18T19:25:30.833Z,21.03
2018-09-18T19:27:59.326Z,21.00
2018-09-18T19:30:27.669Z,20.88
2018-09-18T19:32:55.890Z,20.84
2018-09-18T19:35:24.385Z,20.73
2018-09-18T19:37:52.570Z,20.76
2018-09-18T19:40:20.813Z,20.80
2018-09-18T19:42:49.020Z,20.71
2018-09-18T19:45:17.307Z,20.53
2018-09-18T19:47:45.619Z,20.63
2018-09-18T19:50:18.626Z,20.56
2018-09-18T19:52:47.860Z,20.51
2018-09-18T19:55:16.736Z,20.46
2018-09-18T19:57:45.349Z,20.52
2018-09-18T20:00:13.856Z,20.55
2018-09-18T20:02:42.757Z,20.53
2018-09-18T20:05:11.453Z,20.36
2018-09-18T20:07:39.623Z,20.36
2018-09-18T20:10:07.853Z,20.28
2018-09-18T20:12:36.073Z,20.10
2018-09-18T20:15:04.290Z,19.95
2018-09-18T20:17:32.469Z,19.93
2018-09-18T20:20:00.670Z,19.93
2018-09-18T20:22:28.900Z,20.08
2018-09-18T20:24:57.437Z,20.00
2018-09-18T20:27:26.247Z,20.09
2018-09-18T20:29:54.504Z,20.07
2018-09-18T20:32:22.706Z,20.22
2018-09-18T20:34:50.914Z,20.09
2018-09-18T20:37:19.165Z,20.19
2018-09-18T20:39:47.447Z,20.34
2018-09-18T20:42:15.661Z,20.41
2018-09-18T20:44:43.957Z,20.23
2018-09-18T20:47:12.191Z,20.18
2018-09-18T20:49:40.459Z,20.19
2018-09-18T20:52:08.743Z,20.23
2018-09-18T20:54:36.935Z,20.17
2018-09-18T20:57:05.180Z,20.15
2018-09-18T20:59:33.449Z,20.15
2018-09-18T21:02:01.645Z,20.14
2018-09-18T21:04:29.858Z,20.08
2018-09-18T21:06:58.052Z,19.97
2018-09-18T21:09:26.246Z,19.82
2018-09-18T21:11:54.440Z,19.82
2018-09-18T21:14:22.628Z,19.88
2018-09-18T21:16:50.932Z,19.91
2018-09-18T21:19:21.992Z,19.85
2018-09-18T21:21:50.254Z,19.94
2018-09-18T21:24:19.964Z,20.09
2018-09-18T21:26:48.317Z,20.06
2018-09-18T21:29:16.842Z,20.09
2018-09-18T21:31:45.126Z,20.01
2018-09-18T21:34:13.422Z,20.00
2018-09-18T21:36:41.690Z,19.87
2018-09-18T21:39:10.734Z,20.06
2018-09-18T21:41:38.913Z,20.03
2018-09-18T21:44:11.267Z,19.99
2018-09-18T21:46:39.738Z,19.84
2018-09-18T21:49:08.296Z,19.96
2018-09-18T21:51:36.962Z,20.00
2018-09-18T21:54:05.133Z,20.02
2018-09-18T21:56:33.317Z,19.96
2018-09-18T21:59:01.617Z,20.01
2018-09-18T22:01:30.205Z,20.02
2018-09-18T22:03:58.355Z,19.92
2018-09-18T22:06:26.536Z,19.97
2018-09-18T22:08:54.871Z,19.96
2018-09-18T22:11:23.144Z,19.86
2018-09-18T22:13:51.325Z,19.90
2018-09-18T22:16:19.538Z,19.97
2018-09-18T22:18:48.063Z,20.07
2018-09-18T22:21:16.487Z,20.11
2018-09-18T22:23:44.672Z,20.06
2018-09-18T22:26:12.930Z,20.10
2018-09-18T22:28:41.108Z,20.12
2018-09-18T22:31:09.312Z,20.15
2018-09-18T22:33:37.559Z,20.15
2018-09-18T22:36:05.743Z,20.17
2018-09-18T22:38:33.925Z,20.24
2018-09-18T22:41:02.189Z,20.26
2018-09-18T22:43:30.361Z,20.27
2018-09-18T22:45:58.655Z,20.34
2018-09-18T22:48:26.917Z,20.25
2018-09-18T22:50:55.195Z,20.25
2018-09-18T22:53:23.385Z,20.21
2018-09-18T22:55:51.649Z,20.14
2018-09-18T22:58:19.837Z,20.06
2018-09-18T23:00:48.235Z,20.00
2018-09-18T23:03:16.620Z,19.87
2018-09-18T23:05:44.808Z,19.77
2018-09-18T23:08:13.409Z,19.69
2018-09-18T23:10:41.592Z,19.69
2018-09-18T23:13:09.931Z,19.64
2018-09-18T23:15:38.388Z,19.54
2018-09-18T23:18:06.653Z,19.39
2018-09-18T23:20:34.922Z,19.28
2018-09-18T23:23:03.170Z,19.09
2018-09-18T23:25:31.520Z,19.12
2018-09-18T23:27:59.898Z,19.05
2018-09-18T23:30:28.085Z,18.99
2018-09-18T23:32:56.295Z,18.93
2018-09-18T23:35:24.638Z,18.95
2018-09-18T23:37:52.847Z,18.92
2018-09-18T23:40:21.134Z,18.90
2018-09-18T23:42:49.607Z,18.91
2018-09-18T23:45:17.804Z,18.92
2018-09-18T23:47:45.984Z,18.84
2018-09-18T23:50:14.233Z,18.85
2018-09-18T23:52:42.423Z,18.84
2018-09-18T23:55:10.698Z,18.79
2018-09-18T23:57:38.951Z,18.75
